createdAt,value
2019-03-06T00:00:36.613Z,90.40
2019-03-06T00:03:05.568Z,90.30
2019-03-06T00:05:34.016Z,90.20
2019-03-06T00:08:02.427Z,90.30
2019-03-06T00:10:32.872Z,90.30
2019-03-06T00:13:01.359Z,90.20
2019-03-06T00:15:31.398Z,90.20
2019-03-06T00:17:59.816Z,90.20
2019-03-06T00:20:28.248Z,90.20
2019-03-06T00:22:56.796Z,90.10
2019-03-06T00:25:25.236Z,90.00
2019-03-06T00:27:53.724Z,90.00
2019-03-06T00:30:22.297Z,89.80
2019-03-06T00:32:50.778Z,89.30
2019-03-06T00:35:29.711Z,89.30
2019-03-06T00:37:58.144Z,89.20
2019-03-06T00:40:28.289Z,88.90
2019-03-06T00:42:56.705Z,89.00
2019-03-06T00:45:25.138Z,88.70
2019-03-06T00:47:53.676Z,88.70
2019-03-06T00:50:22.200Z,88.70
2019-03-06T00:52:50.687Z,88.50
2019-03-06T00:55:19.314Z,88.10
2019-03-06T00:57:47.820Z,88.00
2019-03-06T01:00:26.970Z,88.00
2019-03-06T01:02:55.531Z,87.90
2019-03-06T01:05:24.767Z,87.80
2019-03-06T01:07:53.341Z,87.90
2019-03-06T01:10:21.825Z,88.10
2019-03-06T01:12:50.326Z,88.60
2019-03-06T01:15:19.279Z,88.70
2019-03-06T01:17:48.057Z,88.80
2019-03-06T01:20:16.762Z,88.80
2019-03-06T01:22:45.342Z,88.80
2019-03-06T01:25:18.235Z,89.00
2019-03-06T01:27:46.803Z,89.10
2019-03-06T01:30:23.187Z,89.40
2019-03-06T01:33:10.499Z,89.70
2019-03-06T01:35:49.577Z,89.90
2019-03-06T01:38:25.703Z,89.70
2019-03-06T01:40:55.741Z,89.80
2019-03-06T01:43:28.571Z,89.90
2019-03-06T01:45:57.268Z,90.00
2019-03-06T01:48:25.810Z,90.10
2019-03-06T01:50:54.218Z,90.00
2019-03-06T01:53:22.666Z,90.00
2019-03-06T01:55:51.094Z,90.00
2019-03-06T01:58:19.545Z,90.00
2019-03-06T02:00:47.951Z,90.20
2019-03-06T02:03:16.461Z,90.20
2019-03-06T02:05:44.885Z,90.20
2019-03-06T02:08:14.667Z,90.20
2019-03-06T02:10:43.076Z,90.30
2019-03-06T02:13:11.581Z,90.20
2019-03-06T02:15:40.082Z,90.30
2019-03-06T02:18:08.590Z,90.40
2019-03-06T02:20:37.078Z,90.40
2019-03-06T02:23:05.648Z,90.50
2019-03-06T02:25:34.111Z,90.60
2019-03-06T02:28:02.566Z,90.60
2019-03-06T02:30:31.007Z,90.70
2019-03-06T02:32:59.419Z,90.70
2019-03-06T02:35:27.863Z,90.70
2019-03-06T02:37:56.451Z,90.80
2019-03-06T02:40:24.896Z,90.80
2019-03-06T02:42:53.314Z,90.90
2019-03-06T02:45:22.007Z,90.90
2019-03-06T02:47:50.419Z,90.90
2019-03-06T02:50:19.299Z,90.90
2019-03-06T02:52:47.859Z,91.00
2019-03-06T02:55:17.447Z,91.00
2019-03-06T02:58:02.225Z,91.00
2019-03-06T03:00:35.397Z,91.00
2019-03-06T03:03:24.360Z,91.00
2019-03-06T03:05:57.395Z,91.10
2019-03-06T03:08:25.810Z,91.10
2019-03-06T03:10:54.264Z,91.10
2019-03-06T03:13:22.688Z,91.20
2019-03-06T03:15:51.116Z,91.20
2019-03-06T03:18:19.621Z,91.20
2019-03-06T03:20:48.138Z,91.20
2019-03-06T03:23:16.600Z,91.20
2019-03-06T03:25:46.640Z,91.20
2019-03-06T03:28:15.082Z,91.20
2019-03-06T03:30:43.523Z,91.20
2019-03-06T03:33:11.996Z,91.20
2019-03-06T03:35:40.771Z,91.20
2019-03-06T03:38:09.223Z,91.20
2019-03-06T03:40:37.812Z,91.20
2019-03-06T03:43:06.254Z,91.20
2019-03-06T03:45:34.754Z,91.30
2019-03-06T03:48:03.197Z,91.30
2019-03-06T03:50:31.620Z,91.30
2019-03-06T03:53:00.161Z,91.30
2019-03-06T03:55:30.122Z,91.30
2019-03-06T03:57:58.556Z,91.30
2019-03-06T04:00:27.048Z,91.20
2019-03-06T04:02:55.742Z,91.20
2019-03-06T04:05:24.188Z,91.20
2019-03-06T04:07:52.637Z,91.30
2019-03-06T04:10:21.200Z,91.20
2019-03-06T04:12:49.643Z,91.20
2019-03-06T04:15:18.707Z,91.20
2019-03-06T04:17:47.305Z,91.20
2019-03-06T04:20:17.496Z,91.20
2019-03-06T04:22:46.031Z,91.20
2019-03-06T04:25:14.652Z,91.20
2019-03-06T04:27:43.103Z,91.20
2019-03-06T04:30:13.942Z,91.20
2019-03-06T04:32:42.383Z,91.20
2019-03-06T04:35:10.938Z,91.20
2019-03-06T04:37:39.396Z,91.20
2019-03-06T04:40:13.122Z,91.20
2019-03-06T04:42:41.715Z,91.10
2019-03-06T04:45:12.198Z,91.10
2019-03-06T04:47:42.282Z,91.10
2019-03-06T04:50:12.057Z,91.20
2019-03-06T04:52:40.822Z,91.20
2019-03-06T04:55:10.808Z,91.20
2019-03-06T04:57:39.235Z,91.20
2019-03-06T05:00:13.565Z,91.20
2019-03-06T05:02:41.996Z,91.10
2019-03-06T05:05:10.752Z,91.10
2019-03-06T05:07:39.243Z,91.10
2019-03-06T05:10:09.822Z,91.10
2019-03-06T05:12:38.254Z,91.10
2019-03-06T05:15:14.695Z,91.20
2019-03-06T05:17:44.759Z,91.20
2019-03-06T05:20:13.407Z,91.10
2019-03-06T05:22:41.834Z,91.20
2019-03-06T05:25:10.413Z,91.20
2019-03-06T05:27:38.830Z,91.20
2019-03-06T05:30:10.348Z,91.20
2019-03-06T05:32:38.773Z,91.20
2019-03-06T05:35:13.200Z,91.20
2019-03-06T05:38:01.194Z,91.20
2019-03-06T05:40:29.643Z,91.20
2019-03-06T05:42:58.069Z,91.10
2019-03-06T05:45:26.579Z,91.20
2019-03-06T05:47:54.995Z,91.10
2019-03-06T05:50:23.456Z,91.10
2019-03-06T05:52:51.867Z,91.10
2019-03-06T05:55:20.307Z,91.10
2019-03-06T05:57:48.738Z,91.10
2019-03-06T06:00:19.439Z,91.10
2019-03-06T06:02:47.871Z,91.10
2019-03-06T06:05:16.299Z,91.00
2019-03-06T06:07:44.751Z,91.10
2019-03-06T06:10:16.221Z,91.10
2019-03-06T06:12:44.675Z,91.00
2019-03-06T06:15:15.099Z,91.00
2019-03-06T06:17:43.561Z,91.00
2019-03-06T06:20:13.519Z,91.00
2019-03-06T06:22:43.603Z,91.10
2019-03-06T06:25:12.363Z,91.00
2019-03-06T06:27:40.799Z,91.00
2019-03-06T06:30:14.083Z,91.10
2019-03-06T06:32:42.536Z,91.10
2019-03-06T06:35:12.773Z,91.00
2019-03-06T06:37:41.382Z,91.10
2019-03-06T06:40:14.398Z,91.10
2019-03-06T06:42:42.912Z,91.10
2019-03-06T06:45:15.959Z,91.10
2019-03-06T06:48:15.491Z,91.10
2019-03-06T06:51:01.246Z,91.10
2019-03-06T06:53:29.059Z,91.00
2019-03-06T06:56:06.123Z,91.00
2019-03-06T06:58:53.939Z,91.00
2019-03-06T07:01:29.579Z,91.00
2019-03-06T07:04:20.336Z,91.00
2019-03-06T07:07:02.229Z,91.00
2019-03-06T07:09:47.132Z,90.90
2019-03-06T07:12:23.260Z,90.90
2019-03-06T07:14:53.346Z,91.00
2019-03-06T07:17:39.651Z,91.00
2019-03-06T07:20:09.876Z,90.90
2019-03-06T07:22:56.333Z,90.80
2019-03-06T07:25:38.391Z,90.80
2019-03-06T07:28:08.539Z,90.80
2019-03-06T07:30:47.667Z,90.70
2019-03-06T07:33:29.552Z,90.70
2019-03-06T07:36:11.522Z,90.60
2019-03-06T07:38:40.038Z,90.60
2019-03-06T07:41:18.983Z,90.60
2019-03-06T07:44:05.426Z,90.50
2019-03-06T07:46:50.403Z,90.10
2019-03-06T07:49:29.508Z,89.30
2019-03-06T07:52:11.698Z,88.40
2019-03-06T07:54:57.497Z,87.40
2019-03-06T07:57:27.828Z,86.60
2019-03-06T07:59:56.348Z,85.50
2019-03-06T08:02:31.009Z,85.40
2019-03-06T08:04:59.469Z,84.60
2019-03-06T08:07:27.919Z,83.40
2019-03-06T08:09:56.406Z,83.10
2019-03-06T08:12:26.518Z,81.40
2019-03-06T08:15:08.463Z,79.60
2019-03-06T08:17:47.438Z,78.00
2019-03-06T08:20:23.713Z,77.90
2019-03-06T08:23:05.283Z,77.60
2019-03-06T08:25:41.247Z,77.60
2019-03-06T08:28:09.670Z,77.20
2019-03-06T08:30:39.923Z,77.40
2019-03-06T08:33:17.757Z,75.20
2019-03-06T08:35:38.521Z,73.70
2019-03-06T08:38:07.010Z,72.50
2019-03-06T08:40:35.455Z,73.20
2019-03-06T08:43:03.888Z,70.30
2019-03-06T08:45:45.932Z,68.10
2019-03-06T08:48:24.690Z,68.10
2019-03-06T08:51:11.064Z,68.40
2019-03-06T08:53:56.337Z,65.30
2019-03-06T08:56:26.406Z,65.00
2019-03-06T08:59:14.579Z,64.10
2019-03-06T09:02:00.718Z,35.20
2019-03-06T09:04:30.748Z,36.40
2019-03-06T09:07:00.898Z,34.30
2019-03-06T09:09:36.524Z,30.60
2019-03-06T09:12:22.794Z,29.30
2019-03-06T09:15:07.767Z,29.50
2019-03-06T09:17:53.669Z,29.10
2019-03-06T09:20:23.723Z,28.70
2019-03-06T09:23:11.782Z,27.60
2019-03-06T09:25:57.958Z,29.10
2019-03-06T09:28:31.133Z,26.80
2019-03-06T09:31:03.859Z,26.30
2019-03-06T09:33:33.944Z,27.90
2019-03-06T09:36:04.146Z,27.10
2019-03-06T09:38:39.950Z,28.40
2019-03-06T09:41:19.119Z,27.20
2019-03-06T09:43:54.980Z,27.60
2019-03-06T09:46:34.203Z,27.00
2019-03-06T09:49:19.389Z,26.60
2019-03-06T09:51:58.123Z,28.50
2019-03-06T09:54:43.310Z,27.30
2019-03-06T09:57:22.062Z,27.60
2019-03-06T10:00:00.876Z,24.90
2019-03-06T10:02:42.846Z,25.20
2019-03-06T10:05:16.130Z,25.50
2019-03-06T10:07:46.238Z,25.40
2019-03-06T10:10:17.254Z,25.70
2019-03-06T10:12:56.372Z,25.10
2019-03-06T10:15:35.440Z,25.80
2019-03-06T10:18:11.270Z,25.20
2019-03-06T10:20:39.714Z,24.60
2019-03-06T10:23:08.452Z,25.40
2019-03-06T10:25:36.964Z,24.10
2019-03-06T10:28:06.600Z,23.90
2019-03-06T10:30:35.519Z,25.40
2019-03-06T10:33:04.016Z,25.50
2019-03-06T10:35:32.587Z,25.80
2019-03-06T10:38:01.253Z,26.10
2019-03-06T10:40:29.790Z,26.50
2019-03-06T10:42:58.383Z,25.90
2019-03-06T10:45:26.793Z,26.50
2019-03-06T10:47:55.672Z,26.50
2019-03-06T10:50:26.802Z,27.10
2019-03-06T10:52:54.542Z,27.40
2019-03-06T10:55:23.207Z,26.60
2019-03-06T10:57:52.111Z,26.80
2019-03-06T11:00:25.020Z,26.90
2019-03-06T11:02:54.069Z,25.10
2019-03-06T11:05:33.631Z,26.60
2019-03-06T11:08:02.380Z,26.50
2019-03-06T11:10:33.009Z,26.70
2019-03-06T11:13:03.845Z,26.60
2019-03-06T11:15:32.470Z,27.80
2019-03-06T11:18:01.051Z,27.70
2019-03-06T11:20:36.477Z,27.20
2019-03-06T11:23:10.374Z,27.30
2019-03-06T11:25:40.047Z,27.70
2019-03-06T11:28:11.398Z,27.10
2019-03-06T11:30:57.488Z,27.20
2019-03-06T11:33:26.272Z,27.40
2019-03-06T11:35:57.005Z,27.50
2019-03-06T11:38:26.197Z,27.60
2019-03-06T11:40:55.563Z,27.50
2019-03-06T11:43:24.078Z,27.60
2019-03-06T11:45:52.633Z,27.60
2019-03-06T11:48:21.517Z,27.60
2019-03-06T11:50:50.011Z,27.60
2019-03-06T11:53:20.134Z,27.50
2019-03-06T11:55:48.774Z,27.60
2019-03-06T11:58:18.431Z,27.80
2019-03-06T12:00:47.449Z,25.80
2019-03-06T12:03:20.930Z,25.90
2019-03-06T12:05:49.890Z,26.20
2019-03-06T12:08:19.534Z,25.90
2019-03-06T12:10:48.403Z,26.30
2019-03-06T12:13:17.592Z,26.60
2019-03-06T12:15:47.667Z,26.90
2019-03-06T12:18:16.244Z,26.60
2019-03-06T12:20:44.878Z,26.70
2019-03-06T12:23:13.364Z,26.10
2019-03-06T12:25:41.983Z,26.20
2019-03-06T12:28:12.520Z,26.20
2019-03-06T12:30:41.198Z,26.20
2019-03-06T12:33:10.849Z,26.40
2019-03-06T12:35:39.298Z,26.70
2019-03-06T12:38:07.859Z,26.40
2019-03-06T12:40:36.308Z,26.20
2019-03-06T12:43:05.283Z,26.40
2019-03-06T12:45:34.002Z,25.90
2019-03-06T12:48:11.763Z,26.90
2019-03-06T12:50:41.148Z,27.20
2019-03-06T12:53:09.647Z,26.70
2019-03-06T12:55:38.182Z,27.20
2019-03-06T12:58:07.085Z,26.70
2019-03-06T13:00:35.873Z,26.80
2019-03-06T13:03:06.620Z,26.30
2019-03-06T13:05:35.132Z,26.30
2019-03-06T13:08:03.623Z,25.90
2019-03-06T13:10:32.070Z,26.00
2019-03-06T13:13:00.563Z,26.90
2019-03-06T13:15:29.096Z,27.50
2019-03-06T13:17:57.678Z,27.10
2019-03-06T13:20:26.194Z,26.80
2019-03-06T13:22:55.089Z,26.80
2019-03-06T13:25:24.695Z,26.30
2019-03-06T13:27:55.219Z,26.50
2019-03-06T13:30:25.061Z,26.70
2019-03-06T13:33:10.116Z,26.90
2019-03-06T13:35:39.807Z,26.60
2019-03-06T13:38:08.401Z,26.20
2019-03-06T13:40:36.896Z,25.70
2019-03-06T13:43:05.559Z,25.90
2019-03-06T13:45:34.127Z,26.30
2019-03-06T13:48:02.639Z,25.90
2019-03-06T13:50:31.061Z,25.90
2019-03-06T13:53:02.758Z,26.90
2019-03-06T13:55:31.250Z,26.80
2019-03-06T13:57:59.935Z,26.50
2019-03-06T14:00:28.495Z,26.10
2019-03-06T14:02:57.010Z,26.00
2019-03-06T14:05:25.937Z,25.90
2019-03-06T14:07:56.682Z,25.60
2019-03-06T14:10:25.429Z,25.20
2019-03-06T14:12:54.207Z,25.20
2019-03-06T14:15:23.357Z,25.00
2019-03-06T14:17:51.780Z,24.60
2019-03-06T14:20:24.278Z,24.70
2019-03-06T14:22:52.958Z,25.00
2019-03-06T14:25:22.543Z,25.50
2019-03-06T14:27:51.126Z,25.00
2019-03-06T14:30:24.828Z,24.80
2019-03-06T14:32:53.394Z,25.40
2019-03-06T14:35:22.046Z,25.40
2019-03-06T14:37:50.530Z,25.90
2019-03-06T14:40:28.047Z,25.70
2019-03-06T14:42:56.608Z,25.50
2019-03-06T14:45:25.191Z,25.80
2019-03-06T14:47:53.754Z,25.70
2019-03-06T14:50:22.408Z,25.80
2019-03-06T14:52:50.993Z,25.70
2019-03-06T14:55:20.226Z,25.60
2019-03-06T14:57:48.803Z,25.40
2019-03-06T15:00:18.967Z,25.30
2019-03-06T15:02:47.470Z,25.00
2019-03-06T15:05:17.222Z,25.20
2019-03-06T15:07:45.663Z,25.30
2019-03-06T15:10:15.514Z,25.40
2019-03-06T15:12:44.114Z,25.40
2019-03-06T15:15:15.336Z,25.40
2019-03-06T15:17:45.399Z,25.80
2019-03-06T15:20:26.849Z,25.60
2019-03-06T15:22:55.798Z,25.60
2019-03-06T15:25:31.723Z,25.70
2019-03-06T15:28:00.298Z,25.50
2019-03-06T15:30:28.823Z,25.70
2019-03-06T15:32:57.395Z,25.30
2019-03-06T15:35:26.246Z,25.40
2019-03-06T15:37:54.703Z,25.50
2019-03-06T15:40:29.059Z,25.60
2019-03-06T15:42:57.692Z,25.60
2019-03-06T15:45:32.687Z,25.90
2019-03-06T15:48:00.807Z,26.10
2019-03-06T15:50:29.376Z,26.20
2019-03-06T15:52:57.978Z,26.30
2019-03-06T15:55:27.974Z,25.90
2019-03-06T15:57:56.480Z,26.10
2019-03-06T16:00:28.786Z,26.10
2019-03-06T16:02:58.044Z,26.30
2019-03-06T16:05:26.978Z,26.40
2019-03-06T16:07:57.586Z,26.30
2019-03-06T16:10:26.829Z,26.40
2019-03-06T16:12:55.557Z,26.70
2019-03-06T16:15:26.208Z,26.40
2019-03-06T16:17:55.182Z,26.40
2019-03-06T16:20:23.654Z,26.80
2019-03-06T16:22:52.207Z,27.20
2019-03-06T16:25:21.572Z,27.10
2019-03-06T16:27:50.082Z,27.20
2019-03-06T16:30:20.241Z,27.50
2019-03-06T16:32:48.910Z,27.70
2019-03-06T16:35:17.602Z,27.80
2019-03-06T16:37:46.031Z,28.10
2019-03-06T16:40:17.068Z,28.10
2019-03-06T16:42:46.708Z,28.50
2019-03-06T16:45:17.353Z,28.50
2019-03-06T16:47:45.954Z,28.50
2019-03-06T16:50:19.683Z,28.60
2019-03-06T16:52:48.426Z,31.00
2019-03-06T16:55:18.309Z,31.00
2019-03-06T16:57:47.167Z,31.30
2019-03-06T17:00:27.610Z,31.20
2019-03-06T17:02:57.038Z,31.60
2019-03-06T17:05:26.035Z,32.10
2019-03-06T17:07:55.066Z,32.20
2019-03-06T17:10:25.566Z,32.50
2019-03-06T17:12:54.391Z,32.70
2019-03-06T17:15:23.886Z,33.10
2019-03-06T17:17:52.573Z,33.20
2019-03-06T17:20:29.395Z,33.70
2019-03-06T17:22:58.262Z,33.90
2019-03-06T17:25:28.390Z,33.70
2019-03-06T17:27:57.078Z,34.50
2019-03-06T17:30:29.868Z,35.40
2019-03-06T17:33:03.505Z,35.50
2019-03-06T17:35:33.088Z,36.30
2019-03-06T17:38:01.921Z,37.00
2019-03-06T17:40:30.852Z,37.30
2019-03-06T17:42:59.718Z,37.00
2019-03-06T17:45:28.282Z,38.10
2019-03-06T17:47:56.961Z,37.90
2019-03-06T17:50:25.909Z,37.80
2019-03-06T17:52:54.877Z,37.70
2019-03-06T17:55:23.531Z,39.00
2019-03-06T17:57:52.186Z,40.20
2019-03-06T18:00:24.919Z,40.00
2019-03-06T18:02:53.703Z,40.60
2019-03-06T18:05:22.267Z,40.80
2019-03-06T18:07:50.775Z,41.70
2019-03-06T18:10:20.203Z,42.70
2019-03-06T18:12:48.809Z,43.80
2019-03-06T18:15:18.919Z,45.30
2019-03-06T18:17:47.734Z,46.60
2019-03-06T18:20:17.463Z,47.40
2019-03-06T18:22:46.147Z,48.60
2019-03-06T18:25:20.624Z,50.30
2019-03-06T18:27:49.275Z,49.30
2019-03-06T18:30:19.332Z,68.10
2019-03-06T18:32:47.985Z,68.00
2019-03-06T18:35:18.572Z,68.10
2019-03-06T18:37:47.215Z,68.20
2019-03-06T18:40:18.812Z,68.50
2019-03-06T18:42:47.379Z,69.00
2019-03-06T18:45:17.758Z,69.20
2019-03-06T18:47:46.322Z,69.20
2019-03-06T18:50:17.315Z,69.90
2019-03-06T18:52:46.134Z,70.20
2019-03-06T18:55:16.026Z,70.20
2019-03-06T18:57:44.576Z,70.60
2019-03-06T19:00:30.497Z,70.40
2019-03-06T19:02:59.125Z,70.40
2019-03-06T19:05:27.746Z,71.10
2019-03-06T19:07:56.842Z,72.00
2019-03-06T19:10:26.229Z,72.50
2019-03-06T19:12:55.002Z,73.20
2019-03-06T19:15:27.567Z,73.70
2019-03-06T19:17:56.139Z,73.50
2019-03-06T19:20:24.915Z,72.90
2019-03-06T19:22:54.174Z,73.00
2019-03-06T19:25:22.993Z,72.80
2019-03-06T19:27:51.651Z,72.90
2019-03-06T19:30:27.042Z,72.60
2019-03-06T19:32:55.658Z,73.40
2019-03-06T19:35:25.978Z,73.80
2019-03-06T19:37:54.578Z,74.10
2019-03-06T19:40:23.217Z,74.30
2019-03-06T19:42:51.734Z,74.70
2019-03-06T19:45:21.585Z,74.20
2019-03-06T19:47:50.758Z,74.60
2019-03-06T19:50:25.676Z,75.40
2019-03-06T19:52:54.462Z,75.40
2019-03-06T19:55:23.305Z,75.70
2019-03-06T19:57:54.243Z,76.80
2019-03-06T20:00:24.507Z,77.90
2019-03-06T20:02:53.259Z,77.90
2019-03-06T20:05:22.617Z,77.60
2019-03-06T20:07:51.289Z,78.60
2019-03-06T20:10:20.242Z,78.50
2019-03-06T20:12:48.922Z,77.60
2019-03-06T20:15:19.057Z,76.90
2019-03-06T20:17:47.658Z,76.30
2019-03-06T20:20:18.199Z,76.60
2019-03-06T20:22:47.194Z,75.90
2019-03-06T20:25:17.839Z,75.50
2019-03-06T20:27:46.454Z,75.40
2019-03-06T20:30:18.250Z,75.40
2019-03-06T20:32:47.343Z,75.40
2019-03-06T20:35:19.162Z,76.30
2019-03-06T20:37:47.775Z,76.80
2019-03-06T20:40:16.558Z,77.20
2019-03-06T20:42:45.186Z,76.80
2019-03-06T20:45:15.143Z,76.70
2019-03-06T20:47:43.774Z,76.60
2019-03-06T20:50:16.936Z,76.50
2019-03-06T20:52:45.650Z,76.70
2019-03-06T20:55:15.380Z,77.10
2019-03-06T20:57:43.955Z,77.00
2019-03-06T21:00:21.334Z,76.20
2019-03-06T21:02:49.908Z,76.30
2019-03-06T21:05:18.569Z,76.90
2019-03-06T21:07:47.138Z,77.20
2019-03-06T21:10:17.995Z,77.30
2019-03-06T21:12:46.580Z,77.70
2019-03-06T21:15:22.990Z,77.70
2019-03-06T21:17:51.551Z,77.30
2019-03-06T21:20:22.329Z,77.60
2019-03-06T21:22:51.003Z,77.60
2019-03-06T21:25:21.839Z,77.70
2019-03-06T21:27:50.606Z,77.90
2019-03-06T21:30:31.354Z,78.00
2019-03-06T21:33:01.670Z,77.50
2019-03-06T21:35:30.200Z,77.30
2019-03-06T21:37:58.697Z,76.90
2019-03-06T21:40:28.846Z,77.50
2019-03-06T21:42:57.290Z,77.90
2019-03-06T21:45:25.830Z,77.80
2019-03-06T21:47:54.334Z,77.80
2019-03-06T21:50:22.911Z,77.40
2019-03-06T21:52:51.494Z,76.90
2019-03-06T21:55:20.024Z,76.40
2019-03-06T21:57:48.662Z,76.40
2019-03-06T22:00:21.813Z,77.50
2019-03-06T22:02:50.474Z,77.50
2019-03-06T22:05:19.204Z,77.40
2019-03-06T22:07:50.198Z,76.80
2019-03-06T22:10:18.085Z,75.10
2019-03-06T22:12:46.603Z,74.00
2019-03-06T22:15:19.149Z,72.00
2019-03-06T22:17:47.670Z,72.00
2019-03-06T22:20:16.341Z,71.50
2019-03-06T22:22:45.016Z,70.50
2019-03-06T22:25:15.640Z,69.80
2019-03-06T22:27:44.241Z,68.70
2019-03-06T22:30:22.414Z,69.10
2019-03-06T22:32:50.745Z,69.30
2019-03-06T22:35:19.243Z,69.10
2019-03-06T22:37:47.745Z,69.10
2019-03-06T22:40:18.571Z,69.80
2019-03-06T22:42:47.084Z,69.20
2019-03-06T22:45:17.732Z,69.00
2019-03-06T22:47:46.408Z,68.90
2019-03-06T22:50:19.042Z,69.20
2019-03-06T22:52:47.730Z,69.80
2019-03-06T22:55:17.711Z,69.90
2019-03-06T22:57:46.196Z,70.20
2019-03-06T23:00:20.415Z,70.60
2019-03-06T23:02:48.919Z,70.70
2019-03-06T23:05:17.366Z,71.00
2019-03-06T23:07:45.852Z,71.00
2019-03-06T23:10:14.430Z,70.80
2019-03-06T23:12:42.944Z,70.60
2019-03-06T23:15:11.418Z,70.80
2019-03-06T23:17:39.869Z,71.30
2019-03-06T23:20:08.971Z,71.40
2019-03-06T23:22:37.489Z,71.20
2019-03-06T23:25:06.686Z,71.00
2019-03-06T23:27:35.108Z,70.30
2019-03-06T23:30:05.410Z,70.50
2019-03-06T23:32:33.897Z,71.30
2019-03-06T23:35:02.329Z,72.20
2019-03-06T23:37:30.763Z,72.70
2019-03-06T23:39:59.206Z,73.20
2019-03-06T23:42:27.636Z,73.40
2019-03-06T23:44:56.079Z,73.20
2019-03-06T23:47:24.599Z,74.90
2019-03-06T23:49:53.046Z,75.40
2019-03-06T23:52:23.183Z,74.60
2019-03-06T23:54:51.691Z,75.70
2019-03-06T23:57:20.107Z,76.40
2019-03-06T23:59:48.554Z,77.40
